Time;durP1;ratioP1;P1;durP2;ratioP2;P2;SDS_P1;SDS_P2;PMS_P1;PMS_P2;Temp;Humidity;BMP_temperature;BMP_pressure;BME280_temperature;BME280_humidity;BME280_pressure;Samples;Min_cycle;Max_cycle;Signal;HPM_P1;HPM_P2
2022/02/26 00:02:05;;;;;;;227.48;210.07;;;;;;;6.75;71.63;101934.41;15371232;29;20090;-63
2022/02/26 00:09:39;;;;;;;322.17;297.70;;;;;;;6.62;71.00;101953.25;15371274;29;20031;-63
2022/02/26 00:17:11;;;;;;;216.65;198.48;;;;;;;6.78;70.32;101961.63;15371795;29;20487;-63
2022/02/26 00:24:44;;;;;;;216.25;198.70;;;;;;;6.54;71.21;101970.44;15351949;29;20564;-63
2022/02/26 00:32:16;;;;;;;201.77;182.93;;;;;;;6.72;70.85;101974.63;15335890;29;20047;-63
2022/02/26 00:39:50;;;;;;;189.32;171.85;;;;;;;6.58;71.03;101991.00;15352981;29;20055;-63
2022/02/26 00:47:23;;;;;;;219.90;203.18;;;;;;;6.65;70.12;101997.09;15370782;29;20051;-62
2022/02/26 00:54:56;;;;;;;202.73;185.27;;;;;;;6.58;70.62;102006.81;15368547;29;20527;-63
2022/02/26 01:02:28;;;;;;;215.93;195.40;;;;;;;6.48;71.44;102007.63;15368723;29;20035;-62
2022/02/26 01:10:03;;;;;;;266.20;241.60;;;;;;;6.77;69.87;102019.00;15351356;29;20040;-63
2022/02/26 01:17:35;;;;;;;220.68;197.60;;;;;;;6.45;71.20;102026.72;15383705;28;20453;-60
2022/02/26 01:25:09;;;;;;;281.95;255.50;;;;;;;6.53;70.90;102037.28;15367503;29;20102;-62
2022/02/26 01:32:42;;;;;;;173.38;160.55;;;;;;;6.62;71.35;102039.25;15349657;29;20094;-63
2022/02/26 01:40:16;;;;;;;225.23;206.87;;;;;;;6.71;70.98;102052.59;15366528;29;20515;-63
2022/02/26 01:47:48;;;;;;;;;;;;;;;6.54;71.57;102048.09;15367448;29;20044;-64
2022/02/26 01:55:21;;;;;;;214.60;195.95;;;;;;;6.33;72.33;102058.31;15365973;29;19977;-62
2022/02/26 02:02:54;;;;;;;285.58;262.15;;;;;;;6.65;71.25;102062.81;15366202;29;20043;-63
2022/02/26 02:10:28;;;;;;;220.27;200.48;;;;;;;6.52;71.59;102069.75;15348176;29;20134;-64
2022/02/26 02:18:00;;;;;;;213.70;192.70;;;;;;;6.55;71.15;102082.22;15348382;29;20051;-64
2022/02/26 02:25:35;;;;;;;274.00;252.40;;;;;;;6.88;70.70;102076.22;15364676;29;20325;-64
2022/02/26 02:33:09;;;;;;;343.90;314.75;;;;;;;6.54;71.71;102092.47;15346616;29;20541;-63
2022/02/26 02:40:43;;;;;;;294.58;271.58;;;;;;;6.49;71.66;102097.19;15379444;28;20048;-64
2022/02/26 02:48:16;;;;;;;243.75;217.10;;;;;;;6.35;72.29;102106.00;15373719;28;20050;-62
2022/02/26 02:55:52;;;;;;;230.77;212.60;;;;;;;6.59;71.87;102116.66;15353501;29;20075;-63
2022/02/26 03:03:26;;;;;;;242.30;224.52;;;;;;;6.45;72.35;102130.16;15393789;28;20090;-63
2022/02/26 03:11:00;;;;;;;231.82;215.10;;;;;;;6.53;72.30;102139.91;15376793;28;20134;-64
2022/02/26 03:18:32;;;;;;;190.20;174.95;;;;;;;6.43;72.41;102143.47;15362343;29;20047;-64
2022/02/26 03:26:05;;;;;;;201.60;185.75;;;;;;;6.54;73.11;102138.78;15374577;29;20047;-62
2022/02/26 03:33:37;;;;;;;209.60;194.48;;;;;;;6.47;73.45;102154.88;15373846;28;20138;-64
2022/02/26 03:41:13;;;;;;;205.35;190.10;;;;;;;6.60;72.94;102162.69;15375472;28;20059;-63
2022/02/26 03:48:46;;;;;;;197.75;181.77;;;;;;;6.15;74.43;102168.81;15400897;28;20039;-61
2022/02/26 03:56:19;;;;;;;225.57;209.02;;;;;;;6.37;74.00;102172.28;15400261;28;20126;-63
2022/02/26 04:03:53;;;;;;;226.38;209.25;;;;;;;6.34;73.83;102181.13;15386287;28;20053;-62
2022/02/26 04:11:26;;;;;;;293.75;273.80;;;;;;;5.94;74.46;102203.88;15398515;28;20047;-62
2022/02/26 04:18:58;;;;;;;;;;;;;;;6.27;73.69;102213.81;15373907;28;20134;-63
2022/02/26 04:26:32;;;;;;;233.65;215.52;;;;;;;5.97;74.92;102231.06;15394975;28;19926;-63
2022/02/26 04:34:04;;;;;;;225.25;208.15;;;;;;;5.82;74.74;102245.59;15391536;28;20079;-63
2022/02/26 04:41:37;;;;;;;182.85;169.02;;;;;;;5.87;74.96;102261.44;15395595;28;20062;-62
2022/02/26 04:49:10;;;;;;;205.43;189.40;;;;;;;6.20;74.31;102277.81;15405078;28;20043;-64
2022/02/26 04:56:43;;;;;;;194.55;179.27;;;;;;;6.32;73.75;102291.47;15380811;28;20464;-62
2022/02/26 05:04:15;;;;;;;;;;;;;;;6.26;73.74;102301.72;15391398;28;20062;-63
2022/02/26 05:11:48;;;;;;;211.60;197.15;;;;;;;6.45;73.07;102320.69;15371927;28;19974;-63
2022/02/26 05:19:21;;;;;;;239.32;222.07;;;;;;;6.44;73.41;102332.88;15402462;28;20043;-64
2022/02/26 05:26:54;;;;;;;228.05;211.90;;;;;;;6.68;72.15;102347.22;15369157;28;20051;-63
2022/02/26 05:34:26;;;;;;;200.70;185.52;;;;;;;6.70;71.80;102361.63;15385126;28;20051;-62
2022/02/26 05:41:59;;;;;;;248.77;229.30;;;;;;;6.90;71.68;102384.81;15381795;28;20043;-63
2022/02/26 05:49:31;;;;;;;333.02;306.63;;;;;;;6.75;71.71;102379.13;15364604;28;20058;-62
2022/02/26 05:57:12;;;;;;;305.05;281.52;;;;;;;6.92;71.20;102407.56;15355018;28;20039;-61
2022/02/26 06:04:44;;;;;;;514.58;470.02;;;;;;;6.73;71.48;102419.38;15377399;28;20031;-63
2022/02/26 06:12:18;;;;;;;334.20;307.60;;;;;;;6.86;71.58;102438.31;15416756;28;20050;-62
2022/02/26 06:19:50;;;;;;;462.90;420.50;;;;;;;6.72;71.86;102454.59;15391459;28;20387;-63
2022/02/26 06:27:24;;;;;;;443.23;406.08;;;;;;;6.77;72.44;102457.41;15379130;28;20061;-63
2022/02/26 06:34:56;;;;;;;572.22;517.47;;;;;;;6.58;72.33;102465.31;15394648;28;20460;-62
2022/02/26 06:42:30;;;;;;;522.80;475.98;;;;;;;6.61;72.61;102478.66;15408446;28;20050;-62
2022/02/26 06:50:03;;;;;;;;;;;;;;;7.02;71.27;102492.84;15395762;28;20078;-61
2022/02/26 06:57:36;;;;;;;426.20;390.40;;;;;;;6.99;71.86;102507.28;15404914;28;19925;-63
2022/02/26 07:05:09;;;;;;;369.10;339.45;;;;;;;6.75;71.43;102517.88;15404037;28;20052;-62
2022/02/26 07:12:43;;;;;;;360.80;331.05;;;;;;;7.16;70.94;102544.03;15398135;28;20047;-63
2022/02/26 07:20:15;;;;;;;447.13;412.13;;;;;;;7.29;70.04;102551.06;15369965;28;20077;-63
2022/02/26 07:27:48;;;;;;;397.02;366.65;;;;;;;7.52;69.47;102559.03;15386537;28;20050;-61
2022/02/26 07:35:21;;;;;;;522.47;480.13;;;;;;;7.71;68.25;102578.00;15410950;28;20051;-62
2022/02/26 07:42:55;;;;;;;446.57;408.90;;;;;;;7.98;67.63;102583.47;15372208;29;20043;-63
2022/02/26 07:50:26;;;;;;;;;;;;;;;8.05;67.10;102595.19;15372881;29;20106;-63
2022/02/26 07:58:00;;;;;;;308.00;277.42;;;;;;;8.13;67.13;102597.47;15371812;29;19933;-63
2022/02/26 08:05:32;;;;;;;267.77;215.02;;;;;;;8.00;66.51;102618.22;15372010;29;20061;-62
2022/02/26 08:13:06;;;;;;;335.17;301.17;;;;;;;7.97;66.82;102629.88;15353075;29;20457;-62
2022/02/26 08:20:38;;;;;;;;;;;;;;;7.95;66.63;102648.78;15358339;28;20043;-63
2022/02/26 08:28:11;;;;;;;280.08;239.13;;;;;;;7.98;66.09;102664.94;15386206;28;19925;-63
2022/02/26 08:35:43;;;;;;;330.52;284.00;;;;;;;7.94;66.38;102662.97;15420107;28;20055;-63
2022/02/26 08:43:17;;;;;;;294.27;250.27;;;;;;;8.06;65.63;102683.88;15369982;28;20114;-63
2022/02/26 08:50:49;;;;;;;389.73;287.58;;;;;;;8.09;65.03;102694.47;15380925;28;20053;-63
2022/02/26 08:58:23;;;;;;;1521.65;763.60;;;;;;;8.00;63.98;102706.34;15360098;29;20082;-63
2022/02/26 09:05:55;;;;;;;602.17;338.92;;;;;;;8.04;64.54;102716.69;15376692;28;20269;-63
2022/02/26 09:13:29;;;;;;;384.08;269.42;;;;;;;8.03;64.26;102737.25;15352086;29;20520;-63
2022/02/26 09:21:01;;;;;;;1999.90;999.90;;;;;;;8.11;64.11;102744.25;15335823;29;20047;-62
2022/02/26 09:28:36;;;;;;;255.85;226.77;;;;;;;8.24;64.27;102737.41;15367810;29;20123;-62
2022/02/26 09:36:10;;;;;;;337.15;300.55;;;;;;;8.31;64.46;102751.91;15309660;29;20066;-62
2022/02/26 09:43:44;;;;;;;388.70;349.48;;;;;;;8.25;65.47;102764.94;15308584;29;20056;-62
2022/02/26 09:51:17;;;;;;;392.85;266.13;;;;;;;8.95;63.02;102779.53;15307696;29;20075;-63
2022/02/26 09:58:50;;;;;;;420.47;376.50;;;;;;;8.52;64.13;102798.25;15307441;29;20052;-63
2022/02/26 10:06:22;;;;;;;;;;;;;;;9.04;63.39;102791.81;15308446;29;20047;-64
2022/02/26 10:14:02;;;;;;;436.27;382.27;;;;;;;8.80;63.34;102810.94;15308894;29;20320;-64
2022/02/26 10:21:36;;;;;;;453.05;364.15;;;;;;;9.12;61.83;102808.03;15306243;29;20067;-64
2022/02/26 10:29:15;;;;;;;434.83;382.92;;;;;;;9.12;63.17;102812.75;15293959;29;20523;-64
2022/02/26 10:37:01;;;;;;;1557.15;792.08;;;;;;;9.67;60.69;102823.22;15365290;29;20043;-63
2022/02/26 10:44:40;;;;;;;1546.45;785.85;;;;;;;9.40;61.94;102834.59;15349076;29;20039;-65
2022/02/26 10:52:17;;;;;;;1536.70;774.95;;;;;;;9.26;61.54;102837.03;15365114;29;20514;-63
2022/02/26 10:59:55;;;;;;;;;;;;;;;9.39;61.17;102846.03;15366200;29;20106;-62
2022/02/26 11:07:33;;;;;;;1161.78;619.15;;;;;;;9.25;61.66;102852.06;15371598;28;19937;-62
2022/02/26 11:15:08;;;;;;;1999.90;999.90;;;;;;;9.25;60.62;102856.81;15358653;29;20098;-64
2022/02/26 11:22:41;;;;;;;1510.97;758.42;;;;;;;8.89;60.35;102839.94;15376702;29;20078;-62
2022/02/26 11:30:18;;;;;;;1999.90;999.90;;;;;;;9.23;59.64;102853.47;15357615;29;20075;-62
2022/02/26 11:37:56;;;;;;;1999.90;999.90;;;;;;;9.56;57.98;102849.41;15363980;29;20058;-64
2022/02/26 11:45:34;;;;;;;1999.90;999.90;;;;;;;10.58;57.13;102852.28;15374233;29;20142;-63
2022/02/26 11:53:10;;;;;;;1999.90;999.90;;;;;;;10.83;55.29;102846.66;15373825;29;20070;-63
2022/02/26 12:00:47;;;;;;;1999.90;999.90;;;;;;;10.67;55.53;102867.38;15372963;29;20366;-64
2022/02/26 12:08:37;;;;;;;1999.90;999.90;;;;;;;10.23;56.13;102870.75;15358138;29;20077;-63
2022/02/26 12:16:16;;;;;;;1999.90;999.90;;;;;;;10.01;56.82;102878.50;15373083;28;20051;-64
2022/02/26 12:24:03;;;;;;;1999.90;999.90;;;;;;;10.49;56.61;102874.34;15371960;29;20078;-64
2022/02/26 12:31:41;;;;;;;1999.90;999.90;;;;;;;10.63;54.61;102874.63;15370959;29;20413;-64
2022/02/26 12:39:14;;;;;;;1999.90;999.90;;;;;;;10.99;53.93;102867.84;15372794;29;20201;-63
2022/02/26 12:46:49;;;;;;;1999.90;999.90;;;;;;;10.72;54.81;102878.50;15370661;29;20051;-64
2022/02/26 12:54:28;;;;;;;1999.90;999.90;;;;;;;11.97;52.39;102871.03;15353237;29;20054;-63
2022/02/26 13:02:06;;;;;;;1999.90;999.90;;;;;;;12.62;49.21;102872.44;15354183;29;20066;-65
2022/02/26 13:09:53;;;;;;;1999.90;999.90;;;;;;;13.06;47.44;102870.59;15369331;29;20039;-64
2022/02/26 13:17:29;;;;;;;1999.90;999.90;;;;;;;10.73;53.24;102874.59;15351552;29;20051;-64
2022/02/26 13:25:01;;;;;;;1999.90;999.90;;;;;;;9.76;55.71;102882.06;15351401;29;20132;-64
2022/02/26 13:32:41;;;;;;;1999.90;999.90;;;;;;;9.75;56.45;102881.25;15369546;28;20692;-64
2022/02/26 13:40:16;;;;;;;1999.90;999.90;;;;;;;9.91;56.31;102884.06;15368648;29;20047;-64
2022/02/26 13:47:51;;;;;;;1999.90;999.90;;;;;;;10.48;53.97;102875.47;15368541;29;20435;-64
2022/02/26 13:55:26;;;;;;;1999.90;999.90;;;;;;;10.65;54.37;102883.56;15351035;29;20098;-64
2022/02/26 14:03:02;;;;;;;1999.90;999.90;;;;;;;10.91;52.39;102874.00;15336348;29;20110;-64
2022/02/26 14:10:36;;;;;;;1999.90;999.90;;;;;;;10.56;54.07;102882.47;15369455;29;20568;-64
2022/02/26 14:18:10;;;;;;;1999.90;999.90;;;;;;;10.10;54.35;102888.81;15351443;29;20102;-64
2022/02/26 14:25:43;;;;;;;1999.90;999.90;;;;;;;9.76;54.20;102893.22;15334296;29;20453;-63
2022/02/26 14:33:19;;;;;;;1999.90;999.90;;;;;;;10.00;53.58;102890.75;15365218;28;20047;-64
2022/02/26 14:40:51;;;;;;;1999.90;999.90;;;;;;;9.96;52.81;102898.00;15369686;28;20058;-63
2022/02/26 14:48:26;;;;;;;1999.90;999.90;;;;;;;9.86;51.08;102903.56;15378176;29;20047;-64
2022/02/26 14:55:59;;;;;;;1999.90;999.90;;;;;;;9.62;50.65;102911.59;15362571;29;20067;-64
2022/02/26 15:03:32;;;;;;;1999.90;999.90;;;;;;;9.84;50.88;102910.25;15379729;29;20059;-64
2022/02/26 15:11:09;;;;;;;1999.90;999.90;;;;;;;9.80;51.34;102916.69;15345912;29;20134;-63
2022/02/26 15:18:42;;;;;;;1999.90;999.90;;;;;;;9.35;50.38;102918.16;15375899;29;20047;-64
2022/02/26 15:26:15;;;;;;;1999.90;999.90;;;;;;;9.24;50.23;102916.44;15359733;29;20110;-64
2022/02/26 15:33:50;;;;;;;1999.90;999.90;;;;;;;9.11;50.13;102926.13;15376772;29;20469;-64
2022/02/26 15:41:22;;;;;;;1999.90;999.90;;;;;;;8.73;50.34;102934.78;15378140;29;20070;-64
2022/02/26 15:48:56;;;;;;;1999.90;999.90;;;;;;;8.73;50.30;102943.13;15347460;29;20043;-64
2022/02/26 15:56:30;;;;;;;1999.90;999.90;;;;;;;8.78;50.30;102951.53;15361382;29;20046;-63
2022/02/26 16:04:05;;;;;;;1999.90;999.90;;;;;;;8.85;50.27;102961.31;15378342;29;20043;-63
2022/02/26 16:11:37;;;;;;;1999.90;999.90;;;;;;;9.00;50.77;102974.53;15378525;23;20136;-62
2022/02/26 16:19:11;;;;;;;1999.90;999.90;;;;;;;9.02;50.78;102963.94;15332104;29;20127;-60
2022/02/26 16:26:43;;;;;;;1999.90;999.90;;;;;;;8.87;51.10;102955.50;15347281;29;20244;-63
2022/02/26 16:34:16;;;;;;;1999.90;999.90;;;;;;;8.84;51.84;102950.44;15347111;29;20066;-59
2022/02/26 16:41:49;;;;;;;1999.90;999.90;;;;;;;8.63;52.67;102966.97;15364185;29;20402;-61
2022/02/26 16:49:22;;;;;;;1999.90;999.90;;;;;;;8.47;53.05;102969.91;15331245;29;20107;-59
2022/02/26 16:56:55;;;;;;;1999.90;999.90;;;;;;;8.29;53.45;102971.94;15361535;29;20043;-60
2022/02/26 17:04:29;;;;;;;1999.90;999.90;;;;;;;7.89;54.93;102980.66;15362452;28;20067;-59
2022/02/26 17:12:04;;;;;;;1999.90;999.90;;;;;;;7.65;54.77;102994.00;15345271;29;20503;-60
2022/02/26 17:19:38;;;;;;;1999.90;999.90;;;;;;;7.23;56.85;103002.88;15365144;29;20121;-60
2022/02/26 17:35:26;;;;;;;1999.90;999.90;;;;;;;6.77;58.43;103006.00;15391486;29;20578;-63
2022/02/26 17:43:16;;;;;;;1999.90;999.90;;;;;;;6.59;58.96;103002.41;15380465;29;20135;-64
2022/02/26 17:51:04;;;;;;;1999.90;999.90;;;;;;;6.33;59.42;103017.72;15348642;29;20126;-62
2022/02/26 17:59:00;;;;;;;1999.90;999.90;;;;;;;6.28;61.20;103034.28;15366014;29;20538;-61
2022/02/26 18:06:36;;;;;;;1999.90;999.90;;;;;;;6.26;61.28;103033.69;15359544;29;20134;-61
2022/02/26 18:14:08;;;;;;;1999.90;999.90;;;;;;;5.86;62.33;103044.78;15342982;28;20054;-59
2022/02/26 18:21:42;;;;;;;1999.90;999.90;;;;;;;6.01;61.01;103042.34;15352814;29;20047;-59
2022/02/26 18:29:14;;;;;;;1999.90;999.90;;;;;;;5.83;60.69;103050.78;15371236;29;20114;-59
2022/02/26 18:36:50;;;;;;;1999.90;999.90;;;;;;;5.65;61.91;103059.28;15370640;29;20047;-59
2022/02/26 18:44:22;;;;;;;1999.90;999.90;;;;;;;5.64;62.10;103068.66;15353124;29;20047;-61
2022/02/26 18:51:56;;;;;;;1999.90;999.90;;;;;;;5.68;62.73;103076.25;15353245;29;20134;-60
2022/02/26 18:59:29;;;;;;;1999.90;999.90;;;;;;;5.44;63.28;103080.97;15369526;29;20688;-60
2022/02/26 19:07:05;;;;;;;1999.90;999.90;;;;;;;5.34;63.67;103102.03;15368759;29;20089;-59
2022/02/26 19:14:37;;;;;;;1999.90;999.90;;;;;;;5.05;63.96;103098.25;15367735;29;20046;-60
2022/02/26 19:22:11;;;;;;;1999.90;999.90;;;;;;;5.07;63.77;103098.88;15350566;29;20389;-59
2022/02/26 19:29:43;;;;;;;1999.90;999.90;;;;;;;4.83;64.20;103103.50;15350370;28;20118;-59
2022/02/26 19:37:17;;;;;;;1999.90;999.90;;;;;;;4.64;64.26;103109.09;15367617;29;20047;-60
2022/02/26 19:44:50;;;;;;;598.80;323.52;;;;;;;4.39;64.89;103102.03;15369010;28;20055;-60
2022/02/26 19:52:26;;;;;;;;;;;;;;;4.42;64.81;103110.69;15332746;29;20039;-59
2022/02/26 19:59:59;;;;;;;1529.82;775.60;;;;;;;4.15;65.33;103106.59;15347755;29;19923;-55
2022/02/26 20:07:33;;;;;;;1999.90;999.90;;;;;;;4.08;65.92;103114.97;15336472;28;20051;-59
2022/02/26 20:15:06;;;;;;;1534.95;780.13;;;;;;;3.81;66.62;103122.72;15366697;29;20118;-56
2022/02/26 20:22:39;;;;;;;764.73;414.03;;;;;;;3.78;66.46;103130.63;15366069;29;20366;-58
2022/02/26 20:30:12;;;;;;;144.60;129.82;;;;;;;3.72;66.70;103140.66;15372246;29;20621;-62
2022/02/26 20:37:47;;;;;;;138.93;122.43;;;;;;;3.79;67.56;103144.22;15346543;28;20058;-59
2022/02/26 20:45:20;;;;;;;188.52;146.23;;;;;;;3.79;67.38;103157.19;15361296;29;20483;-61
2022/02/26 20:52:54;;;;;;;189.17;158.73;;;;;;;3.74;68.26;103166.97;15364158;29;20043;-60
2022/02/26 21:00:26;;;;;;;181.00;161.75;;;;;;;3.59;68.60;103172.03;15330245;29;20043;-58
2022/02/26 21:08:00;;;;;;;190.88;171.82;;;;;;;3.53;71.23;103169.31;15345275;29;20065;-59
2022/02/26 21:15:32;;;;;;;174.93;157.55;;;;;;;3.67;70.85;103171.75;15345017;29;20043;-57
2022/02/26 21:23:07;;;;;;;166.95;145.45;;;;;;;3.68;70.96;103176.19;15340973;28;20485;-58
2022/02/26 21:30:40;;;;;;;198.73;179.95;;;;;;;3.56;71.17;103183.53;15357753;28;20122;-57
2022/02/26 21:38:14;;;;;;;178.40;160.52;;;;;;;3.67;70.95;103184.69;15329521;29;20089;-55
2022/02/26 21:45:49;;;;;;;204.88;181.88;;;;;;;3.50;71.24;103200.13;15330756;29;20043;-60
2022/02/26 21:53:22;;;;;;;202.27;182.45;;;;;;;3.57;70.95;103193.50;15333204;29;20134;-60
2022/02/26 22:00:54;;;;;;;;;;;;;;;3.73;70.21;103200.34;15361263;29;20505;-58
2022/02/26 22:08:28;;;;;;;146.50;127.57;;;;;;;3.65;69.93;103204.25;15374000;23;19930;-61
2022/02/26 22:16:01;;;;;;;228.55;198.15;;;;;;;3.60;69.72;103198.56;15367923;28;20070;-61
2022/02/26 22:23:34;;;;;;;788.63;434.93;;;;;;;3.51;69.18;103199.06;15394029;28;20499;-59
2022/02/26 22:31:07;;;;;;;223.02;185.90;;;;;;;3.53;68.75;103199.69;15387599;28;20066;-58
2022/02/26 22:38:41;;;;;;;202.83;165.53;;;;;;;3.45;69.43;103192.53;15395022;28;20051;-60
2022/02/26 22:46:13;;;;;;;174.88;156.73;;;;;;;3.45;69.42;103206.34;15376957;28;20070;-57
2022/02/26 22:53:47;;;;;;;1549.22;791.13;;;;;;;3.41;69.40;103211.44;15408621;28;20130;-59
2022/02/26 23:01:20;;;;;;;613.72;350.20;;;;;;;3.27;69.45;103207.13;15360694;28;20043;-60
2022/02/26 23:08:54;;;;;;;659.65;393.40;;;;;;;3.24;69.14;103198.44;15372943;28;20098;-59
2022/02/26 23:16:26;;;;;;;1542.82;788.33;;;;;;;3.05;69.06;103197.50;15377465;28;20039;-59
2022/02/26 23:23:59;;;;;;;1535.88;782.17;;;;;;;3.01;69.41;103208.13;15421704;28;20101;-60
2022/02/26 23:31:31;;;;;;;1999.90;999.90;;;;;;;2.79;69.88;103199.34;15410251;28;20075;-59
2022/02/26 23:39:05;;;;;;;1521.40;766.28;;;;;;;2.54;69.79;103193.75;15398272;28;20142;-59
2022/02/26 23:46:37;;;;;;;615.67;345.98;;;;;;;2.58;69.76;103205.19;15381786;28;20067;-61
2022/02/26 23:54:10;;;;;;;1537.50;783.90;;;;;;;2.54;70.19;103213.06;15388212;28;20054;-60
